Time;durP1;ratioP1;P1;durP2;ratioP2;P2;SDS_P1;SDS_P2;PMS_P1;PMS_P2;Temp;Humidity;BMP_temperature;BMP_pressure;BME280_temperature;BME280_humidity;BME280_pressure;Samples;Min_cycle;Max_cycle;Signal;HPM_P1;HPM_P2
2022/07/26 00:05:36;;;;;;;3.83;1.10;;;;;;;23.61;64.90;100142.81;20822389;28;19927;-76
2022/07/26 00:15:37;;;;;;;2.65;1.20;;;;;;;23.48;67.10;100139.34;20821634;28;20148;-76
2022/07/26 00:25:38;;;;;;;2.58;1.10;;;;;;;23.43;68.80;100147.72;20820612;28;20059;-76
2022/07/26 00:35:40;;;;;;;4.60;1.20;;;;;;;23.41;69.74;100156.78;20819113;28;20055;-76
2022/07/26 00:45:41;;;;;;;1.90;1.10;;;;;;;23.29;71.47;100167.41;20821780;28;20075;-76
2022/07/26 00:55:43;;;;;;;2.75;1.25;;;;;;;23.23;72.51;100173.19;20822022;28;20057;-76
2022/07/26 01:05:44;;;;;;;2.10;1.00;;;;;;;23.18;73.93;100191.34;20816856;28;20053;-76
2022/07/26 01:15:45;;;;;;;3.53;1.10;;;;;;;23.12;76.35;100196.28;20818539;28;20563;-76
2022/07/26 01:25:47;;;;;;;2.83;1.30;;;;;;;22.89;80.11;100197.91;20818107;28;20061;-76
2022/07/26 01:35:51;;;;;;;6.20;1.13;;;;;;;22.88;80.47;100197.03;20819273;28;20099;-77
2022/07/26 01:45:52;;;;;;;3.53;1.20;;;;;;;22.75;81.98;100197.00;20832925;28;20403;-77
2022/07/26 01:55:53;;;;;;;4.03;1.33;;;;;;;22.62;84.10;100206.84;20831709;28;20140;-77
2022/07/26 02:05:55;;;;;;;3.35;1.30;;;;;;;22.35;87.43;100211.41;20830025;28;20049;-76
2022/07/26 02:15:59;;;;;;;3.88;1.27;;;;;;;22.08;91.10;100225.56;20832637;28;20125;-76
2022/07/26 02:26:01;;;;;;;4.55;1.30;;;;;;;21.78;94.31;100226.63;20829315;28;20053;-77
2022/07/26 02:36:02;;;;;;;3.50;1.27;;;;;;;21.67;95.31;100221.16;20830736;28;20468;-77
2022/07/26 02:46:03;;;;;;;4.53;1.40;;;;;;;21.49;97.40;100243.66;20829851;28;20160;-76
2022/07/26 02:56:05;;;;;;;6.15;1.70;;;;;;;21.51;96.57;100226.63;20828224;28;20440;-78
2022/07/26 03:06:06;;;;;;;6.32;1.45;;;;;;;21.38;97.64;100230.16;20828409;28;20053;-76
2022/07/26 03:16:07;;;;;;;4.72;1.70;;;;;;;21.13;100.00;100231.69;20826160;28;20064;-75
2022/07/26 03:26:09;;;;;;;3.55;1.50;;;;;;;20.92;100.00;100230.31;20824713;28;20060;-76
2022/07/26 03:36:10;;;;;;;3.30;1.40;;;;;;;20.77;100.00;100244.56;20823795;28;20148;-77
2022/07/26 03:46:16;;;;;;;3.30;1.40;;;;;;;20.69;100.00;100243.22;20823247;28;20076;-77
2022/07/26 03:56:33;;;;;;;3.33;1.52;;;;;;;20.54;100.00;100254.78;20824894;28;20550;-77
2022/07/26 04:06:34;;;;;;;3.17;1.42;;;;;;;20.37;100.00;100246.91;20818591;28;20140;-78
2022/07/26 04:16:36;;;;;;;8.02;2.30;;;;;;;20.28;100.00;100253.63;20820820;28;20056;-76
2022/07/26 04:26:43;;;;;;;3.50;1.60;;;;;;;20.17;100.00;100262.22;20820020;28;20669;-76
2022/07/26 04:36:44;;;;;;;4.45;1.52;;;;;;;20.07;100.00;100271.66;20818828;28;20057;-76
2022/07/26 04:46:46;;;;;;;3.15;1.80;;;;;;;20.11;100.00;100291.81;20818542;28;20400;-76
2022/07/26 04:56:47;;;;;;;5.47;1.70;;;;;;;20.24;100.00;100295.47;20817998;28;20061;-76
2022/07/26 05:06:49;;;;;;;5.88;1.55;;;;;;;20.38;100.00;100299.16;20816533;28;20075;-77
2022/07/26 05:16:50;;;;;;;3.53;1.60;;;;;;;20.15;100.00;100311.09;20921231;22;20071;-85
2022/07/26 05:26:51;;;;;;;4.32;1.75;;;;;;;20.25;100.00;100313.13;20952760;28;20488;-84
2022/07/26 05:36:58;;;;;;;4.90;1.65;;;;;;;20.37;99.83;100324.88;20949637;28;20132;-85
2022/07/26 05:46:59;;;;;;;3.92;1.83;;;;;;;20.34;100.00;100342.81;20986651;28;20045;-83
2022/07/26 05:57:01;;;;;;;3.72;1.70;;;;;;;20.18;100.00;100335.72;20919347;28;20044;-84
2022/07/26 06:07:02;;;;;;;5.68;1.80;;;;;;;20.64;85.93;100329.56;20919794;28;20049;-84
2022/07/26 06:17:03;;;;;;;5.50;1.90;;;;;;;20.45;88.90;100343.91;20923309;28;20056;-83
2022/07/26 06:27:05;;;;;;;5.90;2.13;;;;;;;20.74;86.76;100352.91;20914601;28;20048;-83
2022/07/26 06:37:06;;;;;;;4.85;1.40;;;;;;;21.04;87.03;100349.38;20903941;28;20464;-82
2022/07/26 06:47:07;;;;;;;5.15;1.50;;;;;;;21.25;79.92;100350.72;20917002;28;20041;-83
2022/07/26 06:57:09;;;;;;;11.13;1.70;;;;;;;21.03;71.48;100350.28;20904324;28;20068;-83
2022/07/26 07:07:10;;;;;;;4.07;1.40;;;;;;;21.06;69.86;100351.94;20921530;28;20049;-83
2022/07/26 07:17:12;;;;;;;4.70;1.20;;;;;;;21.58;67.52;100346.13;20917704;28;20129;-82
2022/07/26 07:27:20;;;;;;;3.75;1.10;;;;;;;21.73;66.09;100342.50;20989100;28;20124;-83
2022/07/26 07:37:21;;;;;;;4.65;1.05;;;;;;;21.90;60.93;100346.78;20962166;28;20412;-83
2022/07/26 07:47:22;;;;;;;2.47;1.00;;;;;;;22.40;58.84;100351.53;20952824;28;20128;-84
2022/07/26 07:57:24;;;;;;;5.43;1.00;;;;;;;22.40;56.79;100338.19;20915704;28;20387;-84
2022/07/26 08:07:29;;;;;;;2.13;0.98;;;;;;;22.83;56.92;100342.47;20949220;28;20041;-83
2022/07/26 08:17:36;;;;;;;4.40;1.10;;;;;;;22.98;54.68;100338.78;20895813;28;20098;-83
2022/07/26 08:27:42;;;;;;;3.15;0.90;;;;;;;23.11;51.77;100353.03;20968186;28;20041;-84
2022/07/26 08:37:43;;;;;;;2.55;0.70;;;;;;;23.35;50.00;100338.94;20996777;28;20043;-85
2022/07/26 08:47:45;;;;;;;2.85;0.63;;;;;;;24.00;48.36;100344.09;20978844;28;20071;-85
2022/07/26 08:58:06;;;;;;;1.55;0.63;;;;;;;23.45;49.55;100353.34;20981309;28;20044;-84
2022/07/26 09:08:07;;;;;;;3.10;0.60;;;;;;;23.27;50.74;100361.66;20977873;28;20058;-87
2022/07/26 09:18:09;;;;;;;2.53;0.73;;;;;;;23.11;49.49;100357.50;20980761;28;20076;-84
2022/07/26 09:28:10;;;;;;;4.68;0.80;;;;;;;23.69;47.33;100351.66;20981896;28;20052;-86
2022/07/26 09:38:11;;;;;;;2.38;0.68;;;;;;;24.57;44.94;100343.47;20977071;28;20036;-86
2022/07/26 09:48:13;;;;;;;2.20;0.60;;;;;;;24.17;45.32;100354.41;20986498;28;20059;-84
2022/07/26 09:58:14;;;;;;;1.63;0.63;;;;;;;24.93;43.93;100355.06;21014662;28;20083;-85
2022/07/26 10:08:15;;;;;;;2.20;0.52;;;;;;;25.10;42.09;100354.63;20993648;28;20044;-87
2022/07/26 10:18:16;;;;;;;2.60;0.85;;;;;;;25.27;42.48;100364.91;21017240;28;20052;-88
2022/07/26 10:49:06;;;;;;;3.40;0.85;;;;;;;24.69;43.13;100368.47;20958160;22;20536;-85
2022/07/26 10:59:08;;;;;;;3.00;0.88;;;;;;;24.81;42.23;100362.19;20914615;28;20091;-88
2022/07/26 11:09:09;;;;;;;2.40;0.63;;;;;;;25.61;40.36;100354.22;20914028;28;20073;-86
2022/07/26 11:19:11;;;;;;;2.10;0.75;;;;;;;25.17;41.76;100353.19;20905515;28;20071;-84
2022/07/26 11:29:12;;;;;;;4.70;0.90;;;;;;;25.61;41.46;100348.84;20904284;28;20477;-85
2022/07/26 11:39:22;;;;;;;3.08;0.80;;;;;;;25.50;39.94;100339.00;20901710;28;20045;-84
2022/07/26 11:49:24;;;;;;;2.83;0.82;;;;;;;25.77;39.91;100333.25;20898573;28;20052;-84
2022/07/26 11:59:45;;;;;;;2.90;0.90;;;;;;;25.71;39.65;100333.72;20899672;28;20564;-84
2022/07/26 12:09:46;;;;;;;3.45;0.80;;;;;;;25.82;38.42;100325.72;20895561;28;20517;-84
2022/07/26 12:19:48;;;;;;;5.43;0.80;;;;;;;26.87;38.08;100304.50;20895829;28;20383;-85
2022/07/26 12:29:49;;;;;;;4.97;0.90;;;;;;;26.03;39.47;100308.88;20894869;28;20048;-84
2022/07/26 12:39:50;;;;;;;4.25;0.88;;;;;;;25.86;38.45;100312.06;20910620;28;20128;-87
2022/07/26 12:49:52;;;;;;;2.08;0.70;;;;;;;25.68;38.50;100308.97;20895006;28;20041;-86
2022/07/26 12:59:53;;;;;;;6.15;1.00;;;;;;;25.81;38.37;100294.50;20906507;28;20060;-86
2022/07/26 13:09:54;;;;;;;3.83;0.73;;;;;;;25.92;38.73;100287.41;20894285;28;20053;-85
2022/07/26 13:20:15;;;;;;;2.63;0.88;;;;;;;26.04;38.48;100289.09;20899441;28;20056;-87
2022/07/26 13:30:17;;;;;;;3.10;0.82;;;;;;;26.30;37.91;100276.19;20893479;28;20045;-87
2022/07/26 13:40:19;;;;;;;2.42;0.80;;;;;;;26.34;38.57;100270.44;20910846;28;20084;-86
2022/07/26 13:50:20;;;;;;;2.38;0.88;;;;;;;26.15;39.22;100266.72;20909367;28;20051;-87
2022/07/26 14:00:22;;;;;;;3.30;0.95;;;;;;;26.81;36.95;100260.22;20907459;28;20067;-87
2022/07/26 14:10:23;;;;;;;3.38;0.70;;;;;;;27.40;33.46;100241.72;20927259;28;20051;-86
2022/07/26 14:20:25;;;;;;;6.70;1.00;;;;;;;27.13;34.98;100248.56;20912813;28;20096;-87
2022/07/26 14:30:26;;;;;;;3.83;0.90;;;;;;;26.65;36.13;100257.16;20895875;28;20053;-87
2022/07/26 14:40:27;;;;;;;3.92;1.02;;;;;;;26.28;36.70;100244.13;20909800;28;20109;-87
2022/07/26 14:50:29;;;;;;;3.47;0.90;;;;;;;27.62;34.69;100228.06;20913749;28;20132;-85
2022/07/26 15:00:51;;;;;;;2.72;0.90;;;;;;;28.31;31.89;100236.09;20915856;28;20045;-87
2022/07/26 15:10:52;;;;;;;2.50;0.75;;;;;;;28.28;31.04;100225.63;20926921;28;20036;-86
2022/07/26 15:20:54;;;;;;;1.92;0.80;;;;;;;27.35;32.69;100224.16;20964857;28;20056;-88
2022/07/26 15:30:55;;;;;;;2.38;0.90;;;;;;;26.43;36.02;100225.03;20900482;28;20531;-88
2022/07/26 15:40:57;;;;;;;2.38;0.75;;;;;;;26.78;35.83;100228.28;20917945;28;20131;-84
2022/07/26 15:50:59;;;;;;;3.97;1.20;;;;;;;27.31;34.92;100213.84;20898511;28;20045;-86
2022/07/26 16:01:01;;;;;;;5.33;1.20;;;;;;;27.11;34.98;100215.56;20897504;28;20424;-86
2022/07/26 16:11:02;;;;;;;2.40;0.80;;;;;;;27.15;35.24;100217.00;20894720;28;20520;-86
2022/07/26 16:21:04;;;;;;;4.00;0.80;;;;;;;26.18;36.84;100213.66;20875197;28;20054;-87
2022/07/26 16:31:05;;;;;;;3.08;0.95;;;;;;;26.94;35.33;100203.59;20902260;28;20059;-88
2022/07/26 16:41:07;;;;;;;2.63;1.00;;;;;;;26.20;37.42;100203.63;20895987;28;20057;-88
2022/07/26 16:51:08;;;;;;;2.70;1.10;;;;;;;26.15;38.01;100194.28;20877362;28;20476;-88
2022/07/26 17:01:09;;;;;;;2.90;1.10;;;;;;;26.85;35.22;100186.44;20893952;28;20460;-88
2022/07/26 17:11:11;;;;;;;2.83;1.08;;;;;;;26.21;36.55;100197.31;20887823;28;20053;-87
2022/07/26 17:21:12;;;;;;;4.78;1.15;;;;;;;26.32;36.81;100199.94;20811549;28;20049;-87
2022/07/26 17:31:13;;;;;;;4.00;1.17;;;;;;;26.43;36.67;100192.81;20847001;28;20133;-86
2022/07/26 17:41:15;;;;;;;2.42;0.98;;;;;;;26.10;37.34;100186.63;20811177;28;20056;-83
2022/07/26 17:51:19;;;;;;;2.58;0.80;;;;;;;26.15;38.17;100189.75;20827052;28;20053;-84
2022/07/26 18:01:20;;;;;;;2.65;0.88;;;;;;;25.57;39.46;100198.09;20821659;28;20113;-86
2022/07/26 18:11:22;;;;;;;7.68;1.40;;;;;;;25.22;41.01;100200.09;20829389;28;20132;-86
2022/07/26 18:21:23;;;;;;;4.80;1.10;;;;;;;24.97;41.82;100195.81;20813356;28;20605;-84
2022/07/26 18:31:25;;;;;;;6.90;1.17;;;;;;;24.78;42.30;100191.06;20839486;28;20054;-84
2022/07/26 18:41:28;;;;;;;8.00;1.50;;;;;;;24.36;44.20;100200.53;20820733;28;20605;-87
2022/07/26 18:51:30;;;;;;;4.22;1.30;;;;;;;24.05;45.20;100197.47;20836976;28;20108;-85
2022/07/26 19:01:32;;;;;;;3.75;1.10;;;;;;;23.93;46.04;100219.81;20818537;28;20045;-85
2022/07/26 19:11:33;;;;;;;3.30;1.20;;;;;;;23.74;46.15;100223.84;20817398;28;20453;-85
2022/07/26 19:21:39;;;;;;;;;;;;;;;23.47;46.18;100241.84;20852559;28;20054;-85
2022/07/26 19:31:44;;;;;;;4.10;1.20;;;;;;;23.24;46.96;100244.34;20888398;28;20446;-84
2022/07/26 19:41:49;;;;;;;4.47;1.23;;;;;;;23.06;47.89;100256.34;20896393;28;20147;-85
2022/07/26 19:51:50;;;;;;;5.55;2.20;;;;;;;22.82;48.63;100260.69;20899138;28;20081;-84
2022/07/26 20:01:53;;;;;;;14.77;4.78;;;;;;;22.53;50.42;100276.88;20966506;28;20052;-85
2022/07/26 20:11:58;;;;;;;17.60;6.25;;;;;;;22.39;51.33;100276.94;20893496;28;20091;-84
2022/07/26 20:22:00;;;;;;;8.52;3.45;;;;;;;22.15;52.65;100285.59;20885157;28;20052;-85
2022/07/26 20:32:01;;;;;;;7.13;2.10;;;;;;;21.95;53.54;100299.34;20893008;28;20080;-84
2022/07/26 20:42:03;;;;;;;6.63;2.00;;;;;;;21.63;55.61;100293.41;20908823;28;20063;-85
2022/07/26 20:52:04;;;;;;;3.17;1.60;;;;;;;21.40;55.96;100287.69;20913569;28;20072;-84
2022/07/26 21:02:06;;;;;;;5.95;1.95;;;;;;;21.17;57.60;100294.41;20902135;28;20065;-84
2022/07/26 21:12:07;;;;;;;4.25;1.60;;;;;;;20.95;58.22;100297.53;20886971;22;20050;-84
2022/07/26 21:22:08;;;;;;;5.85;1.83;;;;;;;20.81;58.82;100310.81;20901798;23;20045;-84
2022/07/26 21:32:10;;;;;;;4.50;1.77;;;;;;;20.55;60.43;100309.69;20911806;28;20089;-84
2022/07/26 21:42:12;;;;;;;4.80;1.60;;;;;;;20.68;59.71;100315.16;20897694;28;20044;-84
2022/07/26 21:52:13;;;;;;;3.00;1.50;;;;;;;20.68;60.84;100328.44;20895929;28;20045;-84
2022/07/26 22:02:14;;;;;;;4.72;1.50;;;;;;;20.58;61.24;100336.09;20923464;28;20053;-83
2022/07/26 22:12:20;;;;;;;3.97;1.80;;;;;;;20.47;61.90;100333.22;20921666;28;20045;-83
2022/07/26 22:22:21;;;;;;;6.43;2.05;;;;;;;20.47;62.07;100338.53;20901717;28;20064;-82
2022/07/26 22:32:23;;;;;;;6.00;2.20;;;;;;;20.35;64.16;100336.53;20899596;28;20103;-83
2022/07/26 22:42:24;;;;;;;4.18;2.08;;;;;;;20.40;64.87;100329.16;20901394;28;20055;-82
2022/07/26 22:52:26;;;;;;;4.63;2.30;;;;;;;20.40;66.12;100330.00;20901509;28;20051;-82
2022/07/26 23:02:27;;;;;;;5.78;2.63;;;;;;;20.39;66.77;100320.31;20918833;28;20051;-82
2022/07/26 23:12:28;;;;;;;6.13;2.60;;;;;;;20.37;68.24;100324.03;20923473;28;20143;-83
2022/07/26 23:22:31;;;;;;;4.40;2.67;;;;;;;20.34;69.16;100332.19;20907107;28;20052;-84
2022/07/26 23:32:32;;;;;;;6.03;2.50;;;;;;;20.26;70.58;100337.91;20933540;28;20033;-86
2022/07/26 23:42:33;;;;;;;5.25;2.38;;;;;;;20.11;72.72;100337.00;20952934;28;20068;-82
2022/07/26 23:52:35;;;;;;;5.68;2.40;;;;;;;20.05;74.07;100325.84;20896200;28;20049;-83
